sensor_id;sensor_type;location;lat;lon;timestamp;pressure;altitude;pressure_sealevel;temperature;humidity
5283;BME280;15376;48.540;9.268;2022-10-17T00:00:31;98015.06;;;11.72;100.00
5283;BME280;15376;48.540;9.268;2022-10-17T00:02:57;98015.72;;;11.74;100.00
5283;BME280;15376;48.540;9.268;2022-10-17T00:05:22;98029.19;;;11.72;100.00
5283;BME280;15376;48.540;9.268;2022-10-17T00:07:49;98026.88;;;11.69;100.00
5283;BME280;15376;48.540;9.268;2022-10-17T00:10:14;98037.06;;;11.65;100.00
5283;BME280;15376;48.540;9.268;2022-10-17T00:12:40;98032.38;;;11.67;100.00
5283;BME280;15376;48.540;9.268;2022-10-17T00:15:06;98029.53;;;11.69;100.00
5283;BME280;15376;48.540;9.268;2022-10-17T00:17:32;98013.09;;;11.43;100.00
5283;BME280;15376;48.540;9.268;2022-10-17T00:19:58;98042.31;;;11.51;100.00
5283;BME280;15376;48.540;9.268;2022-10-17T00:22:25;98043.16;;;11.51;100.00
5283;BME280;15376;48.540;9.268;2022-10-17T00:24:50;98043.97;;;11.52;100.00
5283;BME280;15376;48.540;9.268;2022-10-17T00:27:15;98047.53;;;11.67;100.00
5283;BME280;15376;48.540;9.268;2022-10-17T00:29:41;98046.66;;;11.75;100.00
5283;BME280;15376;48.540;9.268;2022-10-17T00:32:06;98048.00;;;11.70;100.00
5283;BME280;15376;48.540;9.268;2022-10-17T00:34:31;98052.13;;;11.73;100.00
5283;BME280;15376;48.540;9.268;2022-10-17T00:36:57;98053.31;;;11.70;100.00
5283;BME280;15376;48.540;9.268;2022-10-17T00:39:22;98061.34;;;11.62;100.00
5283;BME280;15376;48.540;9.268;2022-10-17T00:41:47;98059.09;;;11.51;100.00
5283;BME280;15376;48.540;9.268;2022-10-17T00:46:54;98066.97;;;11.36;100.00
5283;BME280;15376;48.540;9.268;2022-10-17T00:49:20;98063.84;;;11.33;100.00
5283;BME280;15376;48.540;9.268;2022-10-17T00:51:55;98063.19;;;11.31;100.00
5283;BME280;15376;48.540;9.268;2022-10-17T00:54:24;98066.53;;;11.25;100.00
5283;BME280;15376;48.540;9.268;2022-10-17T00:56:51;98049.97;;;11.15;100.00
5283;BME280;15376;48.540;9.268;2022-10-17T00:59:19;98061.38;;;11.23;100.00
5283;BME280;15376;48.540;9.268;2022-10-17T01:02:04;98068.25;;;11.18;100.00
5283;BME280;15376;48.540;9.268;2022-10-17T01:04:30;98066.63;;;11.00;100.00
5283;BME280;15376;48.540;9.268;2022-10-17T01:06:56;98067.16;;;10.88;100.00
5283;BME280;15376;48.540;9.268;2022-10-17T01:09:21;98071.00;;;10.85;100.00
5283;BME280;15376;48.540;9.268;2022-10-17T01:15:07;98063.84;;;10.86;100.00
5283;BME280;15376;48.540;9.268;2022-10-17T01:17:56;98066.47;;;10.94;100.00
5283;BME280;15376;48.540;9.268;2022-10-17T01:23:55;98065.50;;;10.87;100.00
5283;BME280;15376;48.540;9.268;2022-10-17T01:32:34;98065.09;;;10.18;100.00
5283;BME280;15376;48.540;9.268;2022-10-17T01:35:19;98083.00;;;10.16;100.00
5283;BME280;15376;48.540;9.268;2022-10-17T01:37:55;98076.75;;;10.33;100.00
5283;BME280;15376;48.540;9.268;2022-10-17T01:40:29;98077.69;;;10.49;100.00
5283;BME280;15376;48.540;9.268;2022-10-17T01:43:25;98072.53;;;10.63;100.00
5283;BME280;15376;48.540;9.268;2022-10-17T01:46:15;98070.66;;;10.80;100.00
5283;BME280;15376;48.540;9.268;2022-10-17T01:48:44;98064.72;;;10.70;100.00
5283;BME280;15376;48.540;9.268;2022-10-17T01:51:16;98041.06;;;10.36;100.00
5283;BME280;15376;48.540;9.268;2022-10-17T01:53:51;98064.78;;;10.38;100.00
5283;BME280;15376;48.540;9.268;2022-10-17T01:56:20;98062.47;;;10.26;100.00
5283;BME280;15376;48.540;9.268;2022-10-17T01:58:54;98033.22;;;10.02;100.00
5283;BME280;15376;48.540;9.268;2022-10-17T02:01:22;98030.59;;;9.94;100.00
5283;BME280;15376;48.540;9.268;2022-10-17T02:03:50;98047.16;;;10.12;100.00
5283;BME280;15376;48.540;9.268;2022-10-17T02:06:15;98056.66;;;10.39;100.00
5283;BME280;15376;48.540;9.268;2022-10-17T02:08:47;98057.13;;;10.51;100.00
5283;BME280;15376;48.540;9.268;2022-10-17T02:11:16;98055.13;;;10.61;100.00
5283;BME280;15376;48.540;9.268;2022-10-17T02:16:42;98035.22;;;10.49;100.00
5283;BME280;15376;48.540;9.268;2022-10-17T02:24:48;98056.81;;;10.21;100.00
5283;BME280;15376;48.540;9.268;2022-10-17T02:27:29;98039.19;;;10.04;100.00
5283;BME280;15376;48.540;9.268;2022-10-17T02:30:22;98047.00;;;10.06;100.00
5283;BME280;15376;48.540;9.268;2022-10-17T02:33:00;98039.72;;;9.99;100.00
5283;BME280;15376;48.540;9.268;2022-10-17T02:35:30;98033.56;;;10.15;100.00
5283;BME280;15376;48.540;9.268;2022-10-17T02:37:58;98062.81;;;10.40;100.00
5283;BME280;15376;48.540;9.268;2022-10-17T02:40:26;98069.09;;;10.39;100.00
5283;BME280;15376;48.540;9.268;2022-10-17T02:42:53;98059.63;;;10.44;100.00
5283;BME280;15376;48.540;9.268;2022-10-17T02:45:19;98070.91;;;10.54;100.00
5283;BME280;15376;48.540;9.268;2022-10-17T02:48:02;98073.22;;;10.65;100.00
5283;BME280;15376;48.540;9.268;2022-10-17T02:53:34;98082.81;;;10.75;100.00
5283;BME280;15376;48.540;9.268;2022-10-17T02:56:07;98084.66;;;10.74;100.00
5283;BME280;15376;48.540;9.268;2022-10-17T02:58:37;98089.31;;;10.72;100.00
5283;BME280;15376;48.540;9.268;2022-10-17T03:01:03;98086.81;;;10.71;100.00
5283;BME280;15376;48.540;9.268;2022-10-17T03:03:30;98091.63;;;10.67;100.00
5283;BME280;15376;48.540;9.268;2022-10-17T03:05:56;98087.16;;;10.67;100.00
5283;BME280;15376;48.540;9.268;2022-10-17T03:08:22;98080.19;;;10.58;100.00
5283;BME280;15376;48.540;9.268;2022-10-17T03:10:48;98087.31;;;10.58;100.00
5283;BME280;15376;48.540;9.268;2022-10-17T03:13:14;98091.66;;;10.43;100.00
5283;BME280;15376;48.540;9.268;2022-10-17T03:15:39;98062.44;;;10.18;100.00
5283;BME280;15376;48.540;9.268;2022-10-17T03:18:05;98084.16;;;10.14;100.00
5283;BME280;15376;48.540;9.268;2022-10-17T03:20:30;98091.97;;;9.99;100.00
5283;BME280;15376;48.540;9.268;2022-10-17T03:22:56;98092.91;;;9.82;100.00
5283;BME280;15376;48.540;9.268;2022-10-17T03:25:21;98099.03;;;9.74;100.00
5283;BME280;15376;48.540;9.268;2022-10-17T03:27:46;98101.19;;;9.79;100.00
5283;BME280;15376;48.540;9.268;2022-10-17T03:30:12;98101.91;;;9.89;100.00
5283;BME280;15376;48.540;9.268;2022-10-17T03:32:37;98104.88;;;9.86;100.00
5283;BME280;15376;48.540;9.268;2022-10-17T03:35:03;98101.19;;;9.79;100.00
5283;BME280;15376;48.540;9.268;2022-10-17T03:37:28;98102.69;;;9.73;100.00
5283;BME280;15376;48.540;9.268;2022-10-17T03:39:54;98110.16;;;9.78;100.00
5283;BME280;15376;48.540;9.268;2022-10-17T03:42:19;98110.47;;;9.75;100.00
5283;BME280;15376;48.540;9.268;2022-10-17T03:44:45;98108.13;;;9.63;100.00
5283;BME280;15376;48.540;9.268;2022-10-17T03:47:10;98108.44;;;9.60;100.00
5283;BME280;15376;48.540;9.268;2022-10-17T03:49:35;98108.63;;;9.67;100.00
5283;BME280;15376;48.540;9.268;2022-10-17T03:52:01;98117.81;;;9.89;100.00
5283;BME280;15376;48.540;9.268;2022-10-17T03:54:26;98119.81;;;9.95;100.00
5283;BME280;15376;48.540;9.268;2022-10-17T03:56:52;98122.78;;;10.08;100.00
5283;BME280;15376;48.540;9.268;2022-10-17T03:59:17;98121.97;;;10.08;100.00
5283;BME280;15376;48.540;9.268;2022-10-17T04:01:43;98119.31;;;10.16;100.00
5283;BME280;15376;48.540;9.268;2022-10-17T04:04:08;98124.81;;;10.14;100.00
5283;BME280;15376;48.540;9.268;2022-10-17T04:06:34;98125.13;;;10.11;100.00
5283;BME280;15376;48.540;9.268;2022-10-17T04:09:00;98123.13;;;9.97;100.00
5283;BME280;15376;48.540;9.268;2022-10-17T04:11:26;98121.97;;;9.91;100.00
5283;BME280;15376;48.540;9.268;2022-10-17T04:13:53;98124.78;;;9.90;100.00
5283;BME280;15376;48.540;9.268;2022-10-17T04:16:19;98123.44;;;9.86;100.00
5283;BME280;15376;48.540;9.268;2022-10-17T04:18:44;98126.06;;;9.78;100.00
5283;BME280;15376;48.540;9.268;2022-10-17T04:21:11;98131.03;;;9.73;100.00
5283;BME280;15376;48.540;9.268;2022-10-17T04:23:36;98122.72;;;9.59;100.00
5283;BME280;15376;48.540;9.268;2022-10-17T04:26:03;98134.47;;;9.57;100.00
5283;BME280;15376;48.540;9.268;2022-10-17T04:28:30;98140.09;;;9.54;100.00
5283;BME280;15376;48.540;9.268;2022-10-17T04:31:04;98134.59;;;9.47;100.00
5283;BME280;15376;48.540;9.268;2022-10-17T04:33:30;98136.69;;;9.35;100.00
5283;BME280;15376;48.540;9.268;2022-10-17T04:36:00;98136.19;;;9.32;100.00
5283;BME280;15376;48.540;9.268;2022-10-17T04:38:26;98133.34;;;9.25;100.00
5283;BME280;15376;48.540;9.268;2022-10-17T04:40:52;98139.47;;;9.26;100.00
5283;BME280;15376;48.540;9.268;2022-10-17T04:43:17;98121.59;;;9.28;100.00
5283;BME280;15376;48.540;9.268;2022-10-17T04:45:43;98126.69;;;9.55;100.00
5283;BME280;15376;48.540;9.268;2022-10-17T04:48:09;98133.47;;;9.66;100.00
5283;BME280;15376;48.540;9.268;2022-10-17T04:50:34;98121.69;;;9.52;100.00
5283;BME280;15376;48.540;9.268;2022-10-17T04:52:59;98107.22;;;9.39;100.00
5283;BME280;15376;48.540;9.268;2022-10-17T04:55:25;98140.13;;;9.70;100.00
5283;BME280;15376;48.540;9.268;2022-10-17T04:57:50;98143.66;;;9.79;100.00
5283;BME280;15376;48.540;9.268;2022-10-17T05:00:16;98146.16;;;9.88;100.00
5283;BME280;15376;48.540;9.268;2022-10-17T05:02:41;98144.81;;;9.84;100.00
5283;BME280;15376;48.540;9.268;2022-10-17T05:05:07;98149.59;;;9.73;100.00
5283;BME280;15376;48.540;9.268;2022-10-17T05:07:32;98150.53;;;9.63;100.00
5283;BME280;15376;48.540;9.268;2022-10-17T05:09:58;98152.25;;;9.73;100.00
5283;BME280;15376;48.540;9.268;2022-10-17T05:12:23;98147.59;;;9.75;100.00
5283;BME280;15376;48.540;9.268;2022-10-17T05:14:49;98144.66;;;9.86;100.00
5283;BME280;15376;48.540;9.268;2022-10-17T05:17:15;98141.97;;;9.78;100.00
5283;BME280;15376;48.540;9.268;2022-10-17T05:19:40;98129.84;;;9.59;100.00
5283;BME280;15376;48.540;9.268;2022-10-17T05:22:16;98138.47;;;9.69;100.00
5283;BME280;15376;48.540;9.268;2022-10-17T05:24:41;98144.94;;;9.66;100.00
5283;BME280;15376;48.540;9.268;2022-10-17T05:27:06;98137.59;;;9.52;100.00
5283;BME280;15376;48.540;9.268;2022-10-17T05:29:33;98140.09;;;9.54;100.00
5283;BME280;15376;48.540;9.268;2022-10-17T05:31:58;98143.22;;;9.49;100.00
5283;BME280;15376;48.540;9.268;2022-10-17T05:34:24;98148.53;;;9.49;100.00
5283;BME280;15376;48.540;9.268;2022-10-17T05:36:49;98119.75;;;9.28;100.00
5283;BME280;15376;48.540;9.268;2022-10-17T05:39:15;98145.53;;;9.44;100.00
5283;BME280;15376;48.540;9.268;2022-10-17T05:41:44;98151.88;;;9.67;100.00
5283;BME280;15376;48.540;9.268;2022-10-17T05:44:09;98150.59;;;9.80;100.00
5283;BME280;15376;48.540;9.268;2022-10-17T05:46:34;98154.09;;;9.80;100.00
5283;BME280;15376;48.540;9.268;2022-10-17T05:49:00;98158.88;;;9.77;100.00
5283;BME280;15376;48.540;9.268;2022-10-17T05:51:25;98153.56;;;9.68;100.00
5283;BME280;15376;48.540;9.268;2022-10-17T05:53:50;98147.22;;;9.61;100.00
5283;BME280;15376;48.540;9.268;2022-10-17T05:56:16;98156.41;;;9.75;100.00
5283;BME280;15376;48.540;9.268;2022-10-17T05:58:42;98129.50;;;9.62;100.00
5283;BME280;15376;48.540;9.268;2022-10-17T06:01:11;98134.50;;;9.73;100.00
5283;BME280;15376;48.540;9.268;2022-10-17T06:03:36;98156.13;;;9.94;100.00
5283;BME280;15376;48.540;9.268;2022-10-17T06:06:06;98158.47;;;9.97;100.00
5283;BME280;15376;48.540;9.268;2022-10-17T06:08:33;98157.94;;;10.02;100.00
5283;BME280;15376;48.540;9.268;2022-10-17T06:10:58;98164.09;;;9.94;100.00
5283;BME280;15376;48.540;9.268;2022-10-17T06:13:24;98178.19;;;10.03;100.00
5283;BME280;15376;48.540;9.268;2022-10-17T06:15:49;98173.69;;;10.03;100.00
5283;BME280;15376;48.540;9.268;2022-10-17T06:18:15;98124.41;;;9.77;100.00
5283;BME280;15376;48.540;9.268;2022-10-17T06:20:40;98144.84;;;10.00;100.00
5283;BME280;15376;48.540;9.268;2022-10-17T06:23:05;98172.63;;;10.22;100.00
5283;BME280;15376;48.540;9.268;2022-10-17T06:25:31;98160.34;;;10.21;100.00
5283;BME280;15376;48.540;9.268;2022-10-17T06:27:57;98175.28;;;10.30;100.00
5283;BME280;15376;48.540;9.268;2022-10-17T06:30:23;98174.81;;;10.35;100.00
5283;BME280;15376;48.540;9.268;2022-10-17T06:32:48;98182.59;;;10.28;100.00
5283;BME280;15376;48.540;9.268;2022-10-17T06:35:14;98176.56;;;10.18;100.00
5283;BME280;15376;48.540;9.268;2022-10-17T06:37:39;98180.22;;;10.17;100.00
5283;BME280;15376;48.540;9.268;2022-10-17T06:40:05;98169.22;;;9.88;100.00
5283;BME280;15376;48.540;9.268;2022-10-17T06:42:33;98190.44;;;9.88;100.00
5283;BME280;15376;48.540;9.268;2022-10-17T06:44:58;98185.97;;;10.04;100.00
5283;BME280;15376;48.540;9.268;2022-10-17T06:47:24;98187.06;;;10.20;100.00
5283;BME280;15376;48.540;9.268;2022-10-17T06:49:49;98195.22;;;10.34;100.00
5283;BME280;15376;48.540;9.268;2022-10-17T06:52:14;98172.81;;;10.37;100.00
5283;BME280;15376;48.540;9.268;2022-10-17T06:54:42;98176.63;;;10.51;100.00
5283;BME280;15376;48.540;9.268;2022-10-17T06:57:08;98202.00;;;10.86;100.00
5283;BME280;15376;48.540;9.268;2022-10-17T06:59:33;98210.31;;;10.99;100.00
5283;BME280;15376;48.540;9.268;2022-10-17T07:02:00;98220.78;;;11.09;100.00
5283;BME280;15376;48.540;9.268;2022-10-17T07:04:25;98219.25;;;11.22;100.00
5283;BME280;15376;48.540;9.268;2022-10-17T07:06:51;98231.53;;;11.31;100.00
5283;BME280;15376;48.540;9.268;2022-10-17T07:09:16;98238.66;;;11.47;100.00
5283;BME280;15376;48.540;9.268;2022-10-17T07:11:42;98234.09;;;11.64;100.00
5283;BME280;15376;48.540;9.268;2022-10-17T07:14:07;98240.41;;;11.79;100.00
5283;BME280;15376;48.540;9.268;2022-10-17T07:16:33;98239.06;;;11.83;100.00
5283;BME280;15376;48.540;9.268;2022-10-17T07:18:58;98239.22;;;11.90;100.00
5283;BME280;15376;48.540;9.268;2022-10-17T07:21:24;98230.91;;;11.85;100.00
5283;BME280;15376;48.540;9.268;2022-10-17T07:23:49;98234.69;;;11.98;100.00
5283;BME280;15376;48.540;9.268;2022-10-17T07:26:15;98250.09;;;12.11;100.00
5283;BME280;15376;48.540;9.268;2022-10-17T07:28:42;98254.84;;;12.24;100.00
5283;BME280;15376;48.540;9.268;2022-10-17T07:31:12;98259.31;;;12.31;100.00
5283;BME280;15376;48.540;9.268;2022-10-17T07:33:38;98256.13;;;12.36;100.00
5283;BME280;15376;48.540;9.268;2022-10-17T07:36:04;98264.56;;;12.40;100.00
5283;BME280;15376;48.540;9.268;2022-10-17T07:38:30;98264.03;;;12.44;100.00
5283;BME280;15376;48.540;9.268;2022-10-17T07:41:00;98265.97;;;12.58;100.00
5283;BME280;15376;48.540;9.268;2022-10-17T07:43:27;98267.75;;;12.66;100.00
5283;BME280;15376;48.540;9.268;2022-10-17T07:45:53;98271.38;;;12.73;100.00
5283;BME280;15376;48.540;9.268;2022-10-17T07:48:20;98270.41;;;12.89;100.00
5283;BME280;15376;48.540;9.268;2022-10-17T07:50:46;98269.53;;;12.96;100.00
5283;BME280;15376;48.540;9.268;2022-10-17T07:53:12;98273.78;;;13.06;100.00
5283;BME280;15376;48.540;9.268;2022-10-17T07:55:38;98270.81;;;13.23;100.00
5283;BME280;15376;48.540;9.268;2022-10-17T07:58:04;98260.72;;;13.33;100.00
5283;BME280;15376;48.540;9.268;2022-10-17T08:00:30;98268.41;;;13.51;100.00
5283;BME280;15376;48.540;9.268;2022-10-17T08:02:55;98269.50;;;13.72;100.00
5283;BME280;15376;48.540;9.268;2022-10-17T08:05:20;98261.41;;;13.80;100.00
5283;BME280;15376;48.540;9.268;2022-10-17T08:07:46;98259.13;;;13.91;100.00
5283;BME280;15376;48.540;9.268;2022-10-17T08:10:12;98275.03;;;13.99;100.00
5283;BME280;15376;48.540;9.268;2022-10-17T08:12:38;98268.56;;;14.09;100.00
5283;BME280;15376;48.540;9.268;2022-10-17T08:15:05;98264.25;;;14.22;100.00
5283;BME280;15376;48.540;9.268;2022-10-17T08:17:30;98258.84;;;14.52;100.00
5283;BME280;15376;48.540;9.268;2022-10-17T08:19:58;98252.19;;;14.62;100.00
5283;BME280;15376;48.540;9.268;2022-10-17T08:22:23;98266.19;;;14.86;100.00
5283;BME280;15376;48.540;9.268;2022-10-17T08:24:48;98266.91;;;14.94;100.00
5283;BME280;15376;48.540;9.268;2022-10-17T08:27:14;98267.91;;;15.15;100.00
5283;BME280;15376;48.540;9.268;2022-10-17T08:29:39;98251.84;;;15.15;100.00
5283;BME280;15376;48.540;9.268;2022-10-17T08:32:05;98274.88;;;15.58;100.00
5283;BME280;15376;48.540;9.268;2022-10-17T08:34:32;98270.06;;;15.82;100.00
5283;BME280;15376;48.540;9.268;2022-10-17T08:36:57;98266.97;;;16.19;100.00
5283;BME280;15376;48.540;9.268;2022-10-17T08:39:22;98265.41;;;16.45;100.00
5283;BME280;15376;48.540;9.268;2022-10-17T08:42:02;98270.69;;;16.73;100.00
5283;BME280;15376;48.540;9.268;2022-10-17T08:44:39;98273.00;;;17.02;100.00
5283;BME280;15376;48.540;9.268;2022-10-17T08:47:15;98278.41;;;17.55;100.00
5283;BME280;15376;48.540;9.268;2022-10-17T08:49:53;98277.63;;;18.32;100.00
5283;BME280;15376;48.540;9.268;2022-10-17T08:52:50;98284.59;;;19.47;100.00
5283;BME280;15376;48.540;9.268;2022-10-17T08:55:36;98281.34;;;20.61;93.91
5283;BME280;15376;48.540;9.268;2022-10-17T08:58:04;98281.16;;;21.35;90.85
5283;BME280;15376;48.540;9.268;2022-10-17T09:00:47;98281.28;;;22.21;84.85
5283;BME280;15376;48.540;9.268;2022-10-17T09:03:34;98262.50;;;22.83;81.24
5283;BME280;15376;48.540;9.268;2022-10-17T09:06:31;98275.72;;;23.25;78.10
5283;BME280;15376;48.540;9.268;2022-10-17T09:12:35;98272.53;;;24.82;68.99
5283;BME280;15376;48.540;9.268;2022-10-17T09:15:27;98273.88;;;25.02;69.90
5283;BME280;15376;48.540;9.268;2022-10-17T09:17:58;98275.06;;;26.74;65.02
5283;BME280;15376;48.540;9.268;2022-10-17T09:23:56;98261.88;;;27.59;58.16
5283;BME280;15376;48.540;9.268;2022-10-17T09:26:24;98268.81;;;26.21;60.05
5283;BME280;15376;48.540;9.268;2022-10-17T09:28:52;98264.25;;;27.25;59.45
5283;BME280;15376;48.540;9.268;2022-10-17T09:31:23;98262.84;;;28.09;53.34
5283;BME280;15376;48.540;9.268;2022-10-17T09:33:53;98258.28;;;27.84;54.22
5283;BME280;15376;48.540;9.268;2022-10-17T09:38:50;98262.41;;;30.12;49.88
5283;BME280;15376;48.540;9.268;2022-10-17T09:41:26;98254.53;;;29.48;46.74
5283;BME280;15376;48.540;9.268;2022-10-17T09:43:58;98258.13;;;29.38;48.93
5283;BME280;15376;48.540;9.268;2022-10-17T09:46:36;98259.66;;;30.12;45.88
5283;BME280;15376;48.540;9.268;2022-10-17T09:49:07;98252.31;;;29.79;47.48
5283;BME280;15376;48.540;9.268;2022-10-17T09:51:36;98258.19;;;30.44;47.00
5283;BME280;15376;48.540;9.268;2022-10-17T09:54:05;98256.38;;;31.01;46.59
5283;BME280;15376;48.540;9.268;2022-10-17T09:57:03;98253.03;;;31.23;44.86
5283;BME280;15376;48.540;9.268;2022-10-17T09:59:38;98238.19;;;32.85;43.01
5283;BME280;15376;48.540;9.268;2022-10-17T10:04:33;98249.41;;;32.74;41.35
5283;BME280;15376;48.540;9.268;2022-10-17T10:07:04;98255.53;;;30.15;43.58
5283;BME280;15376;48.540;9.268;2022-10-17T10:09:32;98253.13;;;29.11;47.49
5283;BME280;15376;48.540;9.268;2022-10-17T10:12:02;98244.09;;;27.26;51.53
5283;BME280;15376;48.540;9.268;2022-10-17T10:14:34;98247.19;;;25.95;56.32
5283;BME280;15376;48.540;9.268;2022-10-17T10:17:05;98248.59;;;25.33;60.48
5283;BME280;15376;48.540;9.268;2022-10-17T10:19:50;98260.13;;;24.43;63.06
5283;BME280;15376;48.540;9.268;2022-10-17T10:22:17;98251.81;;;23.89;68.21
5283;BME280;15376;48.540;9.268;2022-10-17T10:24:43;98240.91;;;23.67;70.26
5283;BME280;15376;48.540;9.268;2022-10-17T10:27:14;98248.28;;;23.21;73.35
5283;BME280;15376;48.540;9.268;2022-10-17T10:29:42;98251.19;;;23.15;74.74
5283;BME280;15376;48.540;9.268;2022-10-17T10:34:50;98230.88;;;22.72;76.73
5283;BME280;15376;48.540;9.268;2022-10-17T10:37:25;98246.53;;;22.70;80.08
5283;BME280;15376;48.540;9.268;2022-10-17T10:40:03;98253.19;;;22.51;80.13
5283;BME280;15376;48.540;9.268;2022-10-17T10:42:32;98258.03;;;22.49;80.43
5283;BME280;15376;48.540;9.268;2022-10-17T10:45:12;98247.78;;;22.51;79.99
5283;BME280;15376;48.540;9.268;2022-10-17T10:47:49;98246.72;;;22.52;81.47
5283;BME280;15376;48.540;9.268;2022-10-17T10:55:34;98250.41;;;22.74;79.25
5283;BME280;15376;48.540;9.268;2022-10-17T10:58:08;98260.66;;;22.72;81.78
5283;BME280;15376;48.540;9.268;2022-10-17T11:00:38;98257.31;;;22.53;84.65
5283;BME280;15376;48.540;9.268;2022-10-17T11:03:22;98257.41;;;22.18;85.42
5283;BME280;15376;48.540;9.268;2022-10-17T11:05:56;98262.38;;;22.10;85.86
5283;BME280;15376;48.540;9.268;2022-10-17T11:08:27;98253.69;;;21.84;88.19
5283;BME280;15376;48.540;9.268;2022-10-17T11:17:14;98248.25;;;21.96;90.27
5283;BME280;15376;48.540;9.268;2022-10-17T11:19:49;98252.38;;;21.87;90.10
5283;BME280;15376;48.540;9.268;2022-10-17T11:22:30;98249.78;;;21.92;88.72
5283;BME280;15376;48.540;9.268;2022-10-17T11:24:59;98246.97;;;21.99;89.31
5283;BME280;15376;48.540;9.268;2022-10-17T11:27:29;98242.59;;;22.21;86.17
5283;BME280;15376;48.540;9.268;2022-10-17T11:29:55;98238.22;;;22.32;85.22
5283;BME280;15376;48.540;9.268;2022-10-17T11:32:52;98242.50;;;22.44;84.73
5283;BME280;15376;48.540;9.268;2022-10-17T11:35:35;98221.03;;;22.38;81.97
5283;BME280;15376;48.540;9.268;2022-10-17T11:40:37;98246.69;;;22.63;81.63
5283;BME280;15376;48.540;9.268;2022-10-17T11:43:20;98238.94;;;22.55;81.20
5283;BME280;15376;48.540;9.268;2022-10-17T11:45:57;98229.06;;;22.49;81.28
5283;BME280;15376;48.540;9.268;2022-10-17T11:48:38;98248.00;;;22.61;79.61
5283;BME280;15376;48.540;9.268;2022-10-17T11:51:10;98251.56;;;22.50;78.02
5283;BME280;15376;48.540;9.268;2022-10-17T11:53:47;98246.13;;;22.50;80.99
5283;BME280;15376;48.540;9.268;2022-10-17T11:56:21;98243.91;;;22.47;77.32
5283;BME280;15376;48.540;9.268;2022-10-17T12:06:36;98260.09;;;22.30;75.30
5283;BME280;15376;48.540;9.268;2022-10-17T12:11:41;98250.34;;;22.29;72.64
5283;BME280;15376;48.540;9.268;2022-10-17T12:14:34;98248.41;;;22.41;71.35
5283;BME280;15376;48.540;9.268;2022-10-17T12:17:00;98261.69;;;22.43;72.30
5283;BME280;15376;48.540;9.268;2022-10-17T12:19:27;98246.72;;;22.52;73.32
5283;BME280;15376;48.540;9.268;2022-10-17T12:24:42;98249.53;;;22.57;73.79
5283;BME280;15376;48.540;9.268;2022-10-17T12:32:36;98242.41;;;22.79;68.74
5283;BME280;15376;48.540;9.268;2022-10-17T12:35:02;98246.50;;;22.82;67.57
5283;BME280;15376;48.540;9.268;2022-10-17T12:43:00;98239.66;;;23.08;64.84
5283;BME280;15376;48.540;9.268;2022-10-17T12:46:00;98244.47;;;22.89;67.97
5283;BME280;15376;48.540;9.268;2022-10-17T12:51:12;98230.78;;;22.79;66.26
5283;BME280;15376;48.540;9.268;2022-10-17T12:56:33;98232.59;;;23.07;64.35
5283;BME280;15376;48.540;9.268;2022-10-17T12:58:57;98224.47;;;23.07;62.94
5283;BME280;15376;48.540;9.268;2022-10-17T13:01:28;98234.66;;;23.00;63.35
5283;BME280;15376;48.540;9.268;2022-10-17T13:03:55;98229.66;;;23.25;62.24
5283;BME280;15376;48.540;9.268;2022-10-17T13:06:27;98229.41;;;23.26;61.39
5283;BME280;15376;48.540;9.268;2022-10-17T13:08:58;98228.19;;;23.34;58.00
5283;BME280;15376;48.540;9.268;2022-10-17T13:11:26;98214.44;;;23.24;57.80
5283;BME280;15376;48.540;9.268;2022-10-17T13:13:56;98241.63;;;23.29;58.58
5283;BME280;15376;48.540;9.268;2022-10-17T13:16:31;98243.69;;;23.22;60.57
5283;BME280;15376;48.540;9.268;2022-10-17T13:18:59;98234.97;;;23.20;58.21
5283;BME280;15376;48.540;9.268;2022-10-17T13:21:25;98241.81;;;23.39;58.28
5283;BME280;15376;48.540;9.268;2022-10-17T13:23:51;98245.19;;;23.46;57.42
5283;BME280;15376;48.540;9.268;2022-10-17T13:26:24;98250.69;;;23.51;58.12
5283;BME280;15376;48.540;9.268;2022-10-17T13:29:13;98258.09;;;23.39;59.12
5283;BME280;15376;48.540;9.268;2022-10-17T13:31:41;98255.03;;;23.19;57.40
5283;BME280;15376;48.540;9.268;2022-10-17T13:34:18;98258.41;;;23.26;55.84
5283;BME280;15376;48.540;9.268;2022-10-17T13:36:51;98264.63;;;23.26;57.75
5283;BME280;15376;48.540;9.268;2022-10-17T13:39:21;98257.00;;;23.23;58.35
5283;BME280;15376;48.540;9.268;2022-10-17T13:41:46;98267.69;;;23.30;58.40
5283;BME280;15376;48.540;9.268;2022-10-17T13:44:17;98259.66;;;23.18;57.67
5283;BME280;15376;48.540;9.268;2022-10-17T13:46:44;98262.59;;;23.34;54.53
5283;BME280;15376;48.540;9.268;2022-10-17T13:49:39;98265.63;;;23.37;56.18
5283;BME280;15376;48.540;9.268;2022-10-17T13:52:13;98264.75;;;23.48;55.64
5283;BME280;15376;48.540;9.268;2022-10-17T13:54:41;98264.53;;;23.21;57.97
5283;BME280;15376;48.540;9.268;2022-10-17T13:59:44;98268.25;;;23.15;57.05
5283;BME280;15376;48.540;9.268;2022-10-17T14:02:23;98259.78;;;23.28;56.38
5283;BME280;15376;48.540;9.268;2022-10-17T14:07:41;98261.84;;;23.21;55.76
5283;BME280;15376;48.540;9.268;2022-10-17T14:10:23;98255.38;;;23.39;54.42
5283;BME280;15376;48.540;9.268;2022-10-17T14:12:50;98268.06;;;23.22;56.35
5283;BME280;15376;48.540;9.268;2022-10-17T14:15:16;98247.91;;;23.13;55.92
5283;BME280;15376;48.540;9.268;2022-10-17T14:17:43;98256.50;;;23.10;54.92
5283;BME280;15376;48.540;9.268;2022-10-17T14:20:17;98251.28;;;22.91;56.66
5283;BME280;15376;48.540;9.268;2022-10-17T14:22:44;98265.50;;;22.99;56.29
5283;BME280;15376;48.540;9.268;2022-10-17T14:25:33;98271.31;;;23.19;56.28
5283;BME280;15376;48.540;9.268;2022-10-17T14:30:43;98270.31;;;23.25;55.57
5283;BME280;15376;48.540;9.268;2022-10-17T14:33:20;98275.56;;;23.15;57.08
5283;BME280;15376;48.540;9.268;2022-10-17T14:35:55;98258.75;;;22.84;57.11
5283;BME280;15376;48.540;9.268;2022-10-17T14:38:21;98278.75;;;22.83;60.16
5283;BME280;15376;48.540;9.268;2022-10-17T14:41:22;98277.13;;;22.82;57.61
5283;BME280;15376;48.540;9.268;2022-10-17T14:43:59;98266.72;;;22.62;61.81
5283;BME280;15376;48.540;9.268;2022-10-17T14:46:26;98277.69;;;22.56;62.03
5283;BME280;15376;48.540;9.268;2022-10-17T14:49:18;98279.03;;;22.70;60.57
5283;BME280;15376;48.540;9.268;2022-10-17T14:52:08;98276.63;;;22.45;62.21
5283;BME280;15376;48.540;9.268;2022-10-17T14:54:34;98281.06;;;22.23;66.55